Time;durP1;ratioP1;P1;durP2;ratioP2;P2;SDS_P1;SDS_P2;PMS_P1;PMS_P2;Temp;Humidity;BMP_temperature;BMP_pressure;BME280_temperature;BME280_humidity;BME280_pressure;Samples;Min_cycle;Max_cycle;Signal;HPM_P1;HPM_P2
2022/12/21 09:16:29;;;;;;;7.67;3.57;;;9.20;99.90;;;;;;4897196;29;20285;-74
2022/12/21 09:18:56;;;;;;;10.80;2.20;;;9.30;99.90;;;;;;4900392;29;20202;-74
2022/12/21 09:21:24;;;;;;;10.27;2.60;;;9.30;99.90;;;;;;4897879;29;20305;-74
2022/12/21 09:23:51;;;;;;;5.30;2.70;;;9.40;99.90;;;;;;4900194;29;20210;-74
2022/12/21 09:26:18;;;;;;;6.37;3.07;;;9.30;99.90;;;;;;4900231;29;20208;-74
2022/12/21 09:28:45;;;;;;;8.77;3.03;;;9.40;99.90;;;;;;4900220;29;20225;-74
2022/12/21 09:31:14;;;;;;;14.20;3.53;;;9.30;99.90;;;;;;4899961;29;20654;-74
2022/12/21 09:33:43;;;;;;;11.80;3.37;;;9.30;99.90;;;;;;4900202;29;20211;-74
2022/12/21 09:36:12;;;;;;;9.50;3.07;;;9.30;99.90;;;;;;4900286;29;20209;-74
2022/12/21 09:38:39;;;;;;;6.27;2.90;;;9.30;99.90;;;;;;4899994;29;20206;-74
2022/12/21 09:41:25;;;;;;;5.43;2.93;;;9.30;99.90;;;;;;4899890;29;20565;-73
2022/12/21 09:44:08;;;;;;;9.20;3.63;;;9.40;99.90;;;;;;4898589;29;20244;-74
2022/12/21 09:46:37;;;;;;;7.33;2.60;;;9.30;99.90;;;;;;4898895;29;20209;-74
2022/12/21 09:49:12;;;;;;;7.80;3.07;;;9.40;99.90;;;;;;4897390;29;20202;-74
2022/12/21 09:51:39;;;;;;;7.13;2.90;;;9.40;99.90;;;;;;4899379;29;20221;-74
2022/12/21 09:54:11;;;;;;;8.80;3.20;;;9.40;99.90;;;;;;4899381;29;20202;-73
2022/12/21 09:56:41;;;;;;;7.93;3.43;;;9.60;99.90;;;;;;4900540;29;20236;-73
2022/12/21 09:59:14;;;;;;;6.43;2.87;;;9.70;99.90;;;;;;4900098;29;20209;-74
2022/12/21 10:01:49;;;;;;;6.27;2.63;;;9.80;99.90;;;;;;4899883;29;20234;-73
2022/12/21 10:04:38;;;;;;;5.17;2.47;;;9.90;99.90;;;;;;4900052;29;20209;-74
2022/12/21 10:07:24;;;;;;;6.60;2.97;;;10.00;99.90;;;;;;4900369;29;20211;-73
2022/12/21 10:10:03;;;;;;;5.90;2.73;;;10.10;99.90;;;;;;4900498;29;20237;-74
2022/12/21 10:12:38;;;;;;;8.57;2.40;;;10.10;99.90;;;;;;4899934;29;20241;-74
2022/12/21 10:15:20;;;;;;;6.33;2.40;;;9.90;99.90;;;;;;4900067;29;20224;-74
2022/12/21 10:17:59;;;;;;;7.97;2.80;;;9.90;99.90;;;;;;4900102;29;20209;-74
2022/12/21 10:20:37;;;;;;;9.70;3.33;;;9.80;99.90;;;;;;4900008;29;20210;-74
2022/12/21 10:23:10;;;;;;;6.47;2.37;;;9.80;99.90;;;;;;4899820;29;20297;-74
2022/12/21 10:25:42;;;;;;;3.93;2.37;;;9.70;99.90;;;;;;4900149;29;20214;-74
2022/12/21 10:28:26;;;;;;;5.90;2.40;;;9.60;99.90;;;;;;4900051;29;20266;-74
2022/12/21 10:31:00;;;;;;;10.73;2.60;;;9.60;99.90;;;;;;4899836;29;20210;-74
2022/12/21 10:33:26;;;;;;;3.37;2.00;;;9.60;99.90;;;;;;4899709;29;20210;-73
2022/12/21 10:35:59;;;;;;;4.07;2.03;;;9.60;99.90;;;;;;4899657;29;20211;-73
2022/12/21 10:38:32;;;;;;;4.27;1.70;;;9.40;99.90;;;;;;4899869;29;20238;-72
2022/12/21 10:41:00;;;;;;;5.10;2.60;;;9.40;99.90;;;;;;4899606;29;20218;-73
2022/12/21 10:43:27;;;;;;;7.10;2.70;;;9.50;99.90;;;;;;4899489;29;20578;-73
2022/12/21 10:45:54;;;;;;;5.33;1.90;;;9.60;99.90;;;;;;4899383;29;20217;-73
2022/12/21 10:48:21;;;;;;;5.00;2.37;;;9.50;99.90;;;;;;4899827;29;20217;-72
2022/12/21 10:50:51;;;;;;;6.47;1.90;;;9.50;99.90;;;;;;4899706;29;20221;-73
2022/12/21 10:53:24;;;;;;;7.33;2.37;;;9.50;99.90;;;;;;4899453;29;20241;-73
2022/12/21 10:55:52;;;;;;;4.87;2.50;;;9.50;99.90;;;;;;4899084;29;20293;-73
2022/12/21 10:58:21;;;;;;;6.47;2.50;;;9.50;99.90;;;;;;4898803;29;20733;-73
2022/12/21 11:00:59;;;;;;;3.83;1.70;;;9.40;99.90;;;;;;4898934;29;20210;-73
2022/12/21 11:03:29;;;;;;;5.23;2.20;;;9.40;99.90;;;;;;4898387;29;20597;-73
2022/12/21 11:05:56;;;;;;;5.70;2.93;;;9.60;99.90;;;;;;4899176;29;20265;-73
2022/12/21 11:08:27;;;;;;;5.33;2.27;;;9.70;99.90;;;;;;4898945;29;20237;-72
2022/12/21 11:10:56;;;;;;;3.27;2.13;;;9.70;99.90;;;;;;4899205;29;20294;-72
2022/12/21 11:13:26;;;;;;;7.83;2.53;;;9.80;99.90;;;;;;4899290;29;20325;-73
2022/12/21 11:16:01;;;;;;;6.20;2.37;;;9.70;99.90;;;;;;4898551;29;20221;-73
2022/12/21 11:18:36;;;;;;;6.13;2.23;;;9.90;99.90;;;;;;4898943;29;20214;-72
2022/12/21 11:21:05;;;;;;;7.77;2.13;;;10.00;99.90;;;;;;4898872;29;20576;-73
2022/12/21 11:23:34;;;;;;;6.00;2.17;;;10.10;99.90;;;;;;4898697;29;20240;-73
2022/12/21 11:26:01;;;;;;;2.93;1.70;;;10.10;99.90;;;;;;4898527;29;20666;-73
2022/12/21 11:28:28;;;;;;;2.73;1.90;;;10.00;99.90;;;;;;4898711;29;20210;-73
2022/12/21 11:31:01;;;;;;;3.17;1.77;;;10.00;99.90;;;;;;4898680;29;20214;-72
2022/12/21 11:33:28;;;;;;;6.63;1.97;;;9.90;99.90;;;;;;4898812;29;20210;-72
2022/12/21 11:36:15;;;;;;;8.97;2.27;;;10.00;99.90;;;;;;4898428;29;20210;-72
2022/12/21 11:38:43;;;;;;;2.57;1.83;;;9.90;99.90;;;;;;4898979;29;20228;-73
2022/12/21 11:41:20;;;;;;;3.43;1.67;;;10.10;99.90;;;;;;4898567;29;20214;-73
2022/12/21 11:43:49;;;;;;;5.33;1.83;;;9.90;99.90;;;;;;4898500;29;20257;-73
2022/12/21 11:46:26;;;;;;;6.73;2.20;;;10.00;99.90;;;;;;4898291;29;20665;-73
2022/12/21 11:49:01;;;;;;;4.50;2.03;;;10.00;99.90;;;;;;4898793;29;20214;-73
2022/12/21 11:51:37;;;;;;;3.43;1.93;;;9.90;99.90;;;;;;4898391;29;20225;-72
2022/12/21 11:54:22;;;;;;;4.27;1.93;;;10.10;99.90;;;;;;4898356;29;20217;-73
2022/12/21 11:56:57;;;;;;;5.20;1.83;;;10.10;99.90;;;;;;4898416;29;20218;-73
2022/12/21 11:59:47;;;;;;;4.67;1.90;;;10.10;99.90;;;;;;4898085;29;20700;-72
2022/12/21 12:02:54;;;;;;;2.30;1.57;;;10.10;99.90;;;;;;4898026;29;20234;-73
2022/12/21 12:05:35;;;;;;;5.10;2.00;;;10.20;99.90;;;;;;4898209;29;20210;-73
2022/12/21 12:08:09;;;;;;;6.17;2.80;;;10.20;99.90;;;;;;4898071;29;20217;-72
2022/12/21 12:11:03;;;;;;;5.93;1.90;;;10.10;99.90;;;;;;4897957;29;20681;-73
2022/12/21 12:13:52;;;;;;;3.00;1.87;;;10.00;99.90;;;;;;4897801;29;20215;-73
2022/12/21 12:16:28;;;;;;;10.80;2.00;;;9.90;99.90;;;;;;4897812;29;20692;-72
2022/12/21 12:19:04;;;;;;;3.60;1.40;;;9.70;99.90;;;;;;4898001;29;20213;-72
2022/12/21 12:21:37;;;;;;;3.80;1.90;;;9.70;99.90;;;;;;4897930;29;20229;-72
2022/12/21 12:24:24;;;;;;;3.30;1.20;;;9.70;99.90;;;;;;4897733;29;20244;-71
2022/12/21 12:27:00;;;;;;;2.57;1.60;;;9.70;99.90;;;;;;4898411;29;20213;-73
2022/12/21 12:30:02;;;;;;;3.57;1.83;;;9.70;99.90;;;;;;4898072;29;20210;-72
2022/12/21 12:32:50;;;;;;;3.90;1.80;;;9.70;99.90;;;;;;4897703;29;20229;-71
2022/12/21 12:35:47;;;;;;;7.27;1.60;;;9.70;99.90;;;;;;4897957;29;20210;-72
2022/12/21 12:38:19;;;;;;;4.63;1.20;;;9.80;99.90;;;;;;4897910;29;20234;-72
2022/12/21 12:41:06;;;;;;;3.43;1.50;;;9.90;99.90;;;;;;4897837;29;20212;-72
2022/12/21 12:43:48;;;;;;;3.20;1.50;;;9.90;99.90;;;;;;4897615;29;20246;-71
2022/12/21 12:46:25;;;;;;;4.97;1.50;;;10.10;99.90;;;;;;4897794;29;20245;-71
2022/12/21 12:48:59;;;;;;;2.30;1.30;;;10.20;99.90;;;;;;4897751;29;20622;-72
2022/12/21 12:51:36;;;;;;;2.80;1.27;;;10.20;99.90;;;;;;4898088;29;20236;-72
2022/12/21 12:54:10;;;;;;;7.80;1.67;;;10.20;99.90;;;;;;4897971;29;20245;-72
2022/12/21 12:56:46;;;;;;;3.20;1.63;;;10.20;99.90;;;;;;4897867;29;20265;-70
2022/12/21 12:59:21;;;;;;;3.77;1.50;;;10.30;99.90;;;;;;4897871;29;20220;-71
2022/12/21 13:01:55;;;;;;;8.87;1.53;;;10.20;99.90;;;;;;4897711;29;20241;-72
2022/12/21 13:04:44;;;;;;;4.93;1.63;;;10.00;99.90;;;;;;4897675;29;20244;-72
2022/12/21 13:07:21;;;;;;;4.20;1.50;;;10.10;99.90;;;;;;4897570;29;20221;-71
2022/12/21 13:09:59;;;;;;;4.13;1.27;;;10.00;99.90;;;;;;4897437;29;20224;-71
2022/12/21 13:12:34;;;;;;;2.40;1.13;;;10.00;99.90;;;;;;4897072;29;20713;-74
2022/12/21 13:15:09;;;;;;;1.67;1.00;;;9.90;99.90;;;;;;4896984;29;20577;-74
2022/12/21 13:17:42;;;;;;;2.70;1.20;;;9.90;99.90;;;;;;4897389;29;20541;-72
2022/12/21 13:20:13;;;;;;;2.97;1.30;;;9.90;99.90;;;;;;4897467;29;20211;-73
2022/12/21 13:22:41;;;;;;;5.53;1.27;;;9.90;99.90;;;;;;4897688;29;20581;-74
2022/12/21 13:25:17;;;;;;;3.00;1.40;;;9.90;99.90;;;;;;4898441;29;20215;-71
2022/12/21 13:27:46;;;;;;;2.30;1.30;;;9.90;99.90;;;;;;4900937;29;20297;-73
2022/12/21 13:30:17;;;;;;;2.53;1.23;;;10.00;99.90;;;;;;4900772;29;20217;-74
2022/12/21 13:32:48;;;;;;;4.80;1.47;;;10.00;99.90;;;;;;4900759;29;20253;-74
2022/12/21 13:35:22;;;;;;;4.00;1.20;;;10.10;99.90;;;;;;4901001;29;20211;-73
2022/12/21 13:37:56;;;;;;;6.67;1.30;;;10.10;99.90;;;;;;4900758;29;20206;-72
2022/12/21 13:40:29;;;;;;;4.07;1.87;;;10.20;99.90;;;;;;4900670;29;20261;-74
2022/12/21 13:43:01;;;;;;;5.00;1.17;;;10.20;99.90;;;;;;4900522;29;20698;-74
2022/12/21 13:45:39;;;;;;;2.70;1.20;;;10.20;99.90;;;;;;4900536;29;20214;-74
2022/12/21 13:48:12;;;;;;;3.90;1.93;;;10.30;99.90;;;;;;4900528;29;20210;-74
2022/12/21 13:50:50;;;;;;;2.47;1.20;;;10.30;99.90;;;;;;4900440;29;20669;-74
2022/12/21 13:53:25;;;;;;;3.47;1.10;;;10.30;99.90;;;;;;4900582;29;20238;-74
2022/12/21 13:55:59;;;;;;;3.50;1.30;;;10.30;99.90;;;;;;4900686;29;20218;-73
2022/12/21 13:58:35;;;;;;;3.70;1.27;;;10.30;99.90;;;;;;4900485;29;20207;-74
2022/12/21 14:01:14;;;;;;;3.03;1.00;;;10.30;99.90;;;;;;4900009;29;20209;-74
2022/12/21 14:03:47;;;;;;;2.80;1.10;;;10.30;99.90;;;;;;4900281;29;20735;-74
2022/12/21 14:06:49;;;;;;;2.77;1.10;;;10.40;99.90;;;;;;4900178;29;20607;-74
2022/12/21 14:09:22;;;;;;;4.03;1.10;;;10.30;99.90;;;;;;4897236;29;20229;-74
2022/12/21 14:12:10;;;;;;;6.57;1.30;;;10.30;99.90;;;;;;4900235;29;20257;-74
2022/12/21 14:14:53;;;;;;;3.50;1.20;;;10.30;99.90;;;;;;4900007;29;20226;-74
2022/12/21 14:17:28;;;;;;;5.43;1.00;;;10.30;99.90;;;;;;4900130;29;20662;-75
2022/12/21 14:19:56;;;;;;;2.90;1.03;;;10.30;99.90;;;;;;4900282;29;20214;-74
2022/12/21 14:22:42;;;;;;;4.37;1.33;;;10.20;99.90;;;;;;4899946;29;20234;-74
2022/12/21 14:25:17;;;;;;;3.37;1.00;;;10.10;99.90;;;;;;4899901;29;20246;-74
2022/12/21 14:28:02;;;;;;;1.20;0.80;;;10.10;99.90;;;;;;4899958;29;20221;-73
2022/12/21 14:30:31;;;;;;;1.87;0.97;;;10.20;99.90;;;;;;4899726;29;20250;-74
2022/12/21 14:33:05;;;;;;;1.97;0.90;;;10.20;99.90;;;;;;4899720;29;20282;-74
2022/12/21 14:35:40;;;;;;;2.00;1.20;;;10.20;99.90;;;;;;4899698;29;20206;-74
2022/12/21 14:38:27;;;;;;;1.40;0.83;;;10.20;99.90;;;;;;4899802;29;20210;-74
2022/12/21 14:41:00;;;;;;;1.90;0.60;;;10.20;99.90;;;;;;4899667;29;20219;-74
2022/12/21 14:43:27;;;;;;;2.83;1.13;;;10.20;99.90;;;;;;4899572;29;20275;-73
2022/12/21 14:45:57;;;;;;;1.40;0.90;;;10.20;99.90;;;;;;4899814;29;20218;-74
2022/12/21 14:48:44;;;;;;;2.50;1.20;;;10.20;99.90;;;;;;4899649;29;20214;-74
2022/12/21 14:51:50;;;;;;;1.10;0.77;;;10.10;99.90;;;;;;4899509;29;20261;-72
2022/12/21 14:54:24;;;;;;;2.30;1.20;;;10.10;99.90;;;;;;4899434;29;20693;-72
2022/12/21 14:57:17;;;;;;;6.40;1.30;;;10.10;99.90;;;;;;4899491;29;20210;-72
2022/12/21 14:59:47;;;;;;;2.27;0.93;;;10.10;99.90;;;;;;4899422;29;20214;-74
2022/12/21 15:02:24;;;;;;;4.50;1.27;;;10.10;99.90;;;;;;4898934;29;20234;-72
2022/12/21 15:04:56;;;;;;;2.97;1.00;;;10.10;99.90;;;;;;4899166;29;20241;-71
2022/12/21 15:07:28;;;;;;;1.70;1.00;;;10.00;99.90;;;;;;4899080;29;20214;-73
2022/12/21 15:10:00;;;;;;;2.67;1.40;;;10.00;99.90;;;;;;4899152;29;20305;-73
2022/12/21 15:12:38;;;;;;;5.43;1.10;;;10.10;99.90;;;;;;4911433;23;20264;-71
2022/12/21 15:15:23;;;;;;;1.27;0.80;;;10.10;99.90;;;;;;4899428;29;20222;-70
2022/12/21 15:17:50;;;;;;;2.90;0.80;;;10.10;99.90;;;;;;4899123;29;20214;-70
2022/12/21 15:20:43;;;;;;;4.77;1.00;;;10.10;99.90;;;;;;4899141;29;20233;-70
2022/12/21 15:23:18;;;;;;;2.40;0.97;;;10.10;99.90;;;;;;4898743;29;20238;-70
2022/12/21 15:25:45;;;;;;;2.20;0.80;;;10.00;99.90;;;;;;4898916;29;20218;-70
2022/12/21 15:28:19;;;;;;;1.90;0.90;;;10.00;99.90;;;;;;4899138;29;20215;-71
2022/12/21 15:30:50;;;;;;;6.73;1.07;;;10.00;99.90;;;;;;4898785;29;20218;-71
2022/12/21 15:33:21;;;;;;;6.87;1.30;;;10.00;99.90;;;;;;4898478;29;20250;-69
2022/12/21 15:35:54;;;;;;;1.00;0.80;;;10.10;99.90;;;;;;4898626;29;20224;-70
2022/12/21 15:38:24;;;;;;;1.00;0.70;;;10.10;99.90;;;;;;4898873;29;20237;-71
2022/12/21 15:40:56;;;;;;;2.73;0.93;;;10.10;99.90;;;;;;4898778;29;20249;-73
2022/12/21 15:43:29;;;;;;;3.27;0.70;;;10.10;99.90;;;;;;4898398;29;20234;-71
2022/12/21 15:46:02;;;;;;;2.53;0.80;;;10.20;99.90;;;;;;4898272;29;20210;-71
2022/12/21 15:48:36;;;;;;;3.13;0.93;;;10.20;99.90;;;;;;4898431;29;20233;-71
2022/12/21 15:51:18;;;;;;;2.90;1.13;;;10.10;99.90;;;;;;4898668;29;20211;-71
2022/12/21 15:53:45;;;;;;;1.90;1.10;;;10.10;99.90;;;;;;4898627;29;20225;-70
2022/12/21 15:56:19;;;;;;;2.63;1.00;;;10.10;99.90;;;;;;4898446;29;20218;-71
2022/12/21 15:58:46;;;;;;;2.83;1.00;;;10.10;99.90;;;;;;4898365;29;20213;-70
2022/12/21 16:01:20;;;;;;;2.10;1.10;;;10.10;99.90;;;;;;4898527;29;20213;-70
2022/12/21 16:03:46;;;;;;;1.07;0.80;;;10.00;99.90;;;;;;4898367;29;20230;-70
2022/12/21 16:06:19;;;;;;;3.90;1.13;;;10.10;99.90;;;;;;4898441;29;20221;-71
2022/12/21 16:08:47;;;;;;;2.93;1.20;;;9.90;99.90;;;;;;4898408;29;20207;-70
2022/12/21 16:11:26;;;;;;;3.17;1.20;;;9.90;99.90;;;;;;4898116;29;20573;-70
2022/12/21 16:14:01;;;;;;;3.07;1.30;;;9.80;99.90;;;;;;4898352;29;20274;-72
2022/12/21 16:16:28;;;;;;;5.80;1.23;;;9.90;99.90;;;;;;4898238;29;20215;-69
2022/12/21 16:18:56;;;;;;;3.13;1.10;;;9.90;99.90;;;;;;4898245;29;20625;-69
2022/12/21 16:21:32;;;;;;;3.13;1.40;;;9.90;99.90;;;;;;4897829;29;20305;-70
2022/12/21 16:24:03;;;;;;;3.33;1.90;;;9.90;99.90;;;;;;4897878;29;20289;-70
2022/12/21 16:26:32;;;;;;;2.20;1.17;;;9.90;99.90;;;;;;4898222;29;20210;-70
2022/12/21 16:29:01;;;;;;;4.13;1.57;;;9.90;99.90;;;;;;4897804;29;20206;-70
2022/12/21 16:31:43;;;;;;;2.07;1.40;;;9.80;99.90;;;;;;4897458;29;20230;-70
2022/12/21 16:34:23;;;;;;;2.30;1.30;;;9.80;99.90;;;;;;4897807;29;20217;-71
2022/12/21 16:36:52;;;;;;;2.17;1.20;;;9.80;99.90;;;;;;4897976;29;20206;-70
2022/12/21 16:39:20;;;;;;;3.93;1.30;;;9.80;99.90;;;;;;4898068;29;20289;-71
2022/12/21 16:41:49;;;;;;;3.13;1.20;;;9.70;99.90;;;;;;4897810;29;20232;-70
2022/12/21 16:44:38;;;;;;;4.50;1.40;;;9.70;99.90;;;;;;4897544;29;20229;-71
2022/12/21 16:47:15;;;;;;;3.90;1.37;;;9.70;99.90;;;;;;4898114;29;20589;-71
2022/12/21 16:49:43;;;;;;;2.20;1.33;;;9.70;99.90;;;;;;4898208;29;20220;-71
2022/12/21 16:52:43;;;;;;;4.70;1.83;;;9.60;99.90;;;;;;4897655;29;20728;-73
2022/12/21 16:55:26;;;;;;;4.27;1.23;;;9.60;99.90;;;;;;4897397;29;20210;-74
2022/12/21 16:57:57;;;;;;;4.10;1.70;;;9.60;99.90;;;;;;4892330;29;20214;-72
2022/12/21 17:00:27;;;;;;;2.10;1.33;;;9.60;99.90;;;;;;4892542;29;20261;-72
2022/12/21 17:02:58;;;;;;;3.13;1.47;;;9.60;99.90;;;;;;4889563;29;20581;-73
2022/12/21 17:05:30;;;;;;;3.33;1.60;;;9.60;99.90;;;;;;4899511;29;20238;-74
2022/12/21 17:08:03;;;;;;;3.60;2.00;;;9.70;99.90;;;;;;4894642;29;20619;-70
2022/12/21 17:10:30;;;;;;;2.67;1.53;;;9.70;99.90;;;;;;4897811;29;20678;-71
2022/12/21 17:13:04;;;;;;;2.83;1.83;;;9.70;99.90;;;;;;4894113;29;20249;-68
2022/12/21 17:15:33;;;;;;;3.37;1.77;;;9.70;99.90;;;;;;4895846;29;20223;-69
2022/12/21 17:18:02;;;;;;;3.87;1.60;;;9.60;99.90;;;;;;4900652;29;20207;-70
2022/12/21 17:20:39;;;;;;;3.23;1.57;;;9.50;99.90;;;;;;4899834;29;20210;-72
2022/12/21 17:23:22;;;;;;;2.40;1.37;;;9.50;99.90;;;;;;4900837;29;20230;-70
2022/12/21 17:25:50;;;;;;;2.87;1.50;;;9.50;99.90;;;;;;4900975;29;20246;-71
2022/12/21 17:28:19;;;;;;;2.70;1.70;;;9.50;99.90;;;;;;4900763;29;20543;-70
2022/12/21 17:30:48;;;;;;;3.73;1.70;;;9.60;99.90;;;;;;4900873;29;20627;-71
2022/12/21 17:33:21;;;;;;;3.60;1.63;;;9.50;99.90;;;;;;4901115;29;20230;-72
2022/12/21 17:35:48;;;;;;;4.90;1.87;;;9.50;99.90;;;;;;4901147;29;20218;-71
2022/12/21 17:38:16;;;;;;;4.13;1.80;;;9.50;99.90;;;;;;4900967;29;20662;-69
2022/12/21 17:40:44;;;;;;;5.03;2.13;;;9.60;99.90;;;;;;4900642;29;20670;-73
2022/12/21 17:43:11;;;;;;;4.73;2.27;;;9.60;99.90;;;;;;4900569;29;20231;-71
2022/12/21 17:45:39;;;;;;;6.77;2.50;;;9.60;99.90;;;;;;4900627;29;20244;-73
2022/12/21 17:48:07;;;;;;;4.20;1.73;;;9.60;99.90;;;;;;4900610;29;20733;-71
2022/12/21 17:50:37;;;;;;;3.40;2.00;;;9.60;99.90;;;;;;4900551;29;20210;-71
2022/12/21 17:53:07;;;;;;;2.80;1.50;;;9.60;99.90;;;;;;4900247;29;20223;-73
2022/12/21 17:55:34;;;;;;;5.73;1.87;;;9.60;99.90;;;;;;4900668;29;20217;-72
2022/12/21 17:58:02;;;;;;;3.13;1.77;;;9.70;99.90;;;;;;4900284;29;20215;-72
2022/12/21 18:00:29;;;;;;;3.60;1.90;;;9.60;99.90;;;;;;4900642;29;20300;-72
2022/12/21 18:03:04;;;;;;;4.63;1.87;;;9.70;99.90;;;;;;4900236;29;20230;-73
2022/12/21 18:05:31;;;;;;;1.87;1.27;;;9.70;99.90;;;;;;4900243;29;20245;-72
2022/12/21 18:07:59;;;;;;;3.23;1.50;;;9.80;99.90;;;;;;4900529;29;20222;-73
2022/12/21 18:10:29;;;;;;;2.87;1.30;;;9.80;99.90;;;;;;4900134;29;20682;-72
2022/12/21 18:12:57;;;;;;;5.20;1.20;;;9.80;99.90;;;;;;4900017;29;20321;-73
2022/12/21 18:15:27;;;;;;;3.87;1.03;;;9.80;99.90;;;;;;4899941;29;20224;-73
2022/12/21 18:17:58;;;;;;;2.37;1.27;;;9.80;99.90;;;;;;4900316;29;20214;-72
2022/12/21 18:20:27;;;;;;;2.50;1.37;;;9.80;99.90;;;;;;4900404;29;20297;-72
2022/12/21 18:22:54;;;;;;;3.00;1.37;;;9.70;99.90;;;;;;4900089;29;20717;-71
2022/12/21 18:25:23;;;;;;;4.00;1.40;;;9.70;99.90;;;;;;4900106;29;20290;-72
2022/12/21 18:27:51;;;;;;;2.33;1.30;;;9.70;99.90;;;;;;4900057;29;20581;-71
2022/12/21 18:30:19;;;;;;;3.53;1.70;;;9.70;99.90;;;;;;4900106;29;20222;-72
2022/12/21 18:32:51;;;;;;;6.33;2.77;;;9.70;99.90;;;;;;4899518;29;20237;-72
2022/12/21 18:35:20;;;;;;;3.67;2.00;;;9.80;99.90;;;;;;4899769;29;20214;-70
2022/12/21 18:37:49;;;;;;;2.40;1.50;;;9.80;99.90;;;;;;4899826;29;20217;-73
2022/12/21 18:40:18;;;;;;;2.87;1.70;;;9.80;99.90;;;;;;4899919;29;20218;-72
2022/12/21 18:42:44;;;;;;;1.60;1.20;;;9.80;99.90;;;;;;4899810;29;20244;-73
2022/12/21 18:45:11;;;;;;;3.33;1.83;;;9.80;99.90;;;;;;4899635;29;20243;-70
2022/12/21 18:47:39;;;;;;;2.50;1.67;;;9.80;99.90;;;;;;4899812;29;20206;-73
2022/12/21 18:50:15;;;;;;;2.70;1.70;;;9.90;99.90;;;;;;4899373;29;20218;-72
2022/12/21 18:52:43;;;;;;;3.33;1.73;;;9.80;99.90;;;;;;4899675;29;20230;-72
2022/12/21 18:55:14;;;;;;;2.60;1.73;;;9.80;99.90;;;;;;4899397;29;20218;-72
2022/12/21 18:57:41;;;;;;;4.20;1.53;;;9.80;99.90;;;;;;4899367;29;20206;-71
2022/12/21 19:00:10;;;;;;;2.47;1.40;;;9.80;99.90;;;;;;4899128;29;20662;-73
2022/12/21 19:02:37;;;;;;;2.10;1.30;;;9.80;99.90;;;;;;4899191;29;20286;-73
2022/12/21 19:05:06;;;;;;;2.63;1.77;;;9.80;99.90;;;;;;4899330;29;20230;-72
2022/12/21 19:07:37;;;;;;;1.83;1.20;;;9.90;99.90;;;;;;4899173;29;20214;-72
2022/12/21 19:10:05;;;;;;;1.90;1.23;;;9.90;99.90;;;;;;4898975;29;20595;-72
2022/12/21 19:12:32;;;;;;;1.97;1.37;;;9.90;99.90;;;;;;4898854;29;20242;-73
2022/12/21 19:14:59;;;;;;;1.83;1.40;;;9.90;99.90;;;;;;4899103;29;20217;-73
2022/12/21 19:17:32;;;;;;;2.90;1.43;;;9.90;99.90;;;;;;4898843;29;20206;-72
2022/12/21 19:19:59;;;;;;;2.47;1.50;;;9.90;99.90;;;;;;4898771;29;20214;-72
2022/12/21 19:22:28;;;;;;;3.43;1.57;;;9.90;99.90;;;;;;4897920;29;20234;-71
2022/12/21 19:25:00;;;;;;;3.90;1.90;;;10.00;99.90;;;;;;4898518;29;20260;-72
2022/12/21 19:27:27;;;;;;;1.70;1.37;;;10.00;99.90;;;;;;4898944;29;20221;-73
2022/12/21 19:29:54;;;;;;;3.07;1.77;;;10.10;99.90;;;;;;4898798;29;20242;-73
2022/12/21 19:32:20;;;;;;;3.07;1.77;;;10.10;99.90;;;;;;4898442;29;20732;-72
2022/12/21 19:34:47;;;;;;;1.80;1.60;;;10.10;99.90;;;;;;4898894;29;20210;-73
2022/12/21 19:37:22;;;;;;;3.13;1.90;;;10.20;99.90;;;;;;4898757;29;20666;-72
2022/12/21 19:39:51;;;;;;;2.53;1.70;;;10.10;99.90;;;;;;4898622;29;20680;-73
2022/12/21 19:42:22;;;;;;;2.63;1.60;;;10.20;99.90;;;;;;4898752;29;20241;-73
2022/12/21 19:44:50;;;;;;;4.07;1.80;;;10.20;99.90;;;;;;4898711;29;20213;-72
2022/12/21 19:47:20;;;;;;;2.07;1.57;;;10.20;99.90;;;;;;4898393;29;20737;-73
2022/12/21 19:49:47;;;;;;;3.33;1.90;;;10.20;99.90;;;;;;4898246;29;20266;-73
2022/12/21 19:52:14;;;;;;;2.23;1.70;;;10.30;99.90;;;;;;4898575;29;20226;-73
2022/12/21 19:54:41;;;;;;;2.90;1.77;;;10.40;99.90;;;;;;4897979;29;20305;-73
2022/12/21 19:57:20;;;;;;;3.07;2.13;;;10.40;99.90;;;;;;4898055;29;20210;-73
2022/12/21 19:59:48;;;;;;;3.97;1.80;;;10.50;99.90;;;;;;4898116;29;20217;-72
2022/12/21 20:02:22;;;;;;;2.73;1.60;;;10.50;99.90;;;;;;4897648;29;20594;-72
2022/12/21 20:04:49;;;;;;;3.20;1.90;;;10.50;99.90;;;;;;4897961;29;20210;-71
2022/12/21 20:07:16;;;;;;;2.97;2.00;;;10.60;99.90;;;;;;4898224;29;20214;-70
2022/12/21 20:09:43;;;;;;;3.53;1.67;;;10.50;99.90;;;;;;4897887;29;20207;-70
2022/12/21 20:12:13;;;;;;;2.30;1.43;;;10.50;99.90;;;;;;4897682;29;20242;-71
2022/12/21 20:14:42;;;;;;;2.30;1.57;;;10.60;99.90;;;;;;4898134;29;20274;-70
2022/12/21 20:17:14;;;;;;;2.97;1.60;;;10.60;99.90;;;;;;4897814;29;20712;-70
2022/12/21 20:19:41;;;;;;;2.20;1.80;;;10.50;99.90;;;;;;4898225;29;20214;-70
2022/12/21 20:22:11;;;;;;;3.10;1.87;;;10.50;99.90;;;;;;4897654;29;20237;-70
2022/12/21 20:24:38;;;;;;;2.50;1.57;;;10.60;99.90;;;;;;4898061;29;20220;-70
2022/12/21 20:27:05;;;;;;;1.30;1.20;;;10.60;99.90;;;;;;4897891;29;20238;-70
2022/12/21 20:29:32;;;;;;;2.60;1.30;;;10.50;99.90;;;;;;4897863;29;20221;-70
2022/12/21 20:31:59;;;;;;;4.20;2.33;;;10.50;99.90;;;;;;4897714;29;20233;-69
2022/12/21 20:34:28;;;;;;;3.37;1.80;;;10.50;99.90;;;;;;4900870;29;20214;-71
2022/12/21 20:36:55;;;;;;;2.57;1.50;;;10.60;99.90;;;;;;4904248;29;20257;-70
2022/12/21 20:39:23;;;;;;;2.83;1.97;;;10.60;99.90;;;;;;4904191;29;20212;-71
2022/12/21 20:44:39;;;;;;;4.33;1.63;;;10.60;99.90;;;;;;4903915;29;20668;-72
2022/12/21 20:47:06;;;;;;;4.00;2.10;;;10.60;99.90;;;;;;4904013;29;20237;-70
2022/12/21 20:49:34;;;;;;;4.83;2.27;;;10.60;99.90;;;;;;4904291;29;20312;-71
2022/12/21 20:52:01;;;;;;;4.70;2.17;;;10.60;99.90;;;;;;4903697;29;20701;-72
2022/12/21 20:54:28;;;;;;;3.63;1.70;;;10.60;99.90;;;;;;4903851;29;20210;-70
2022/12/21 20:56:53;;;;;;;5.13;2.00;;;10.70;99.90;;;;;;4903924;29;20224;-71
2022/12/21 20:59:20;;;;;;;2.13;1.50;;;10.70;99.90;;;;;;4904270;29;20210;-70
2022/12/21 21:01:59;;;;;;;1.77;1.43;;;10.80;99.90;;;;;;4903785;29;20321;-72
2022/12/21 21:04:28;;;;;;;2.57;1.43;;;10.80;99.90;;;;;;4903514;29;20296;-70
2022/12/21 21:06:56;;;;;;;1.80;1.30;;;10.80;99.90;;;;;;4903588;29;20245;-70
2022/12/21 21:09:24;;;;;;;3.17;1.23;;;10.80;99.90;;;;;;4904151;29;20214;-71
2022/12/21 21:11:52;;;;;;;2.50;1.23;;;10.80;99.90;;;;;;4904256;29;20240;-70
2022/12/21 21:14:19;;;;;;;2.20;1.40;;;10.90;99.90;;;;;;4903966;29;20210;-71
2022/12/21 21:16:47;;;;;;;2.17;1.23;;;10.90;99.90;;;;;;4903704;29;20220;-70
2022/12/21 21:19:21;;;;;;;2.37;1.37;;;10.90;99.90;;;;;;4903844;29;20236;-70
2022/12/21 21:24:34;;;;;;;3.13;1.30;;;10.90;99.90;;;;;;4903832;29;20209;-69
2022/12/21 21:27:01;;;;;;;2.43;1.30;;;10.90;99.90;;;;;;4903737;29;20234;-70
2022/12/21 21:29:28;;;;;;;2.47;1.33;;;10.90;99.90;;;;;;4903624;29;20576;-73
2022/12/21 21:31:55;;;;;;;2.53;1.47;;;10.90;99.90;;;;;;4903379;29;20238;-70
2022/12/21 21:34:22;;;;;;;2.23;1.33;;;10.90;99.90;;;;;;4903873;29;20210;-74
2022/12/21 21:36:50;;;;;;;1.77;0.90;;;10.80;99.90;;;;;;4903822;29;20654;-71
2022/12/21 21:42:17;;;;;;;1.10;0.93;;;10.80;99.90;;;;;;4903736;29;20232;-71
2022/12/21 21:44:44;;;;;;;1.20;1.00;;;10.90;99.90;;;;;;4903818;29;20211;-71
2022/12/21 21:49:57;;;;;;;1.57;0.80;;;11.00;99.90;;;;;;4900835;29;20210;-70
2022/12/21 21:52:24;;;;;;;1.47;0.97;;;11.00;99.90;;;;;;4900723;29;20241;-70
2022/12/21 21:54:51;;;;;;;1.83;0.90;;;11.00;99.90;;;;;;4900541;29;20214;-71
2022/12/21 21:57:25;;;;;;;1.17;1.00;;;11.00;99.90;;;;;;4900710;29;20220;-72
2022/12/21 21:59:53;;;;;;;1.30;1.03;;;11.00;99.90;;;;;;4900604;29;20300;-72
2022/12/21 22:02:30;;;;;;;1.43;1.30;;;11.00;99.90;;;;;;4900370;29;20238;-70
2022/12/21 22:04:57;;;;;;;2.00;1.10;;;11.00;99.90;;;;;;4900322;29;20206;-70
2022/12/21 22:07:24;;;;;;;3.13;1.10;;;11.00;99.90;;;;;;4900278;29;20238;-71
2022/12/21 22:10:27;;;;;;;1.53;1.17;;;11.00;99.90;;;;;;4900272;29;20213;-69
2022/12/21 22:12:41;;;;;;;4.00;1.30;;;11.00;99.90;;;;;;4899902;29;20646;-70
2022/12/21 22:15:14;;;;;;;1.63;1.07;;;11.10;99.90;;;;;;4900024;29;20297;-72
2022/12/21 22:17:41;;;;;;;1.40;1.00;;;11.10;99.90;;;;;;4900345;29;20301;-71
2022/12/21 22:34:07;;;;;;;2.50;1.10;;;11.30;99.90;;;;;;4899911;29;20210;-71
2022/12/21 22:42:30;;;;;;;1.23;1.03;;;11.50;99.90;;;;;;4899820;29;20265;-71
2022/12/21 22:45:16;;;;;;;1.57;1.30;;;11.50;99.90;;;;;;4899774;29;20297;-73
2022/12/21 22:47:43;;;;;;;2.37;1.30;;;11.50;99.90;;;;;;4897964;29;20247;-72
2022/12/21 22:50:11;;;;;;;2.40;1.40;;;11.50;99.90;;;;;;4899549;29;20237;-71
